createdAt,value
2019-05-09T00:04:35.377Z,3.32
2019-05-09T00:09:44.126Z,3.48
2019-05-09T00:14:50.115Z,3.48
2019-05-09T00:19:57.710Z,3.36
2019-05-09T00:25:05.371Z,3.47
2019-05-09T00:30:13.958Z,3.50
2019-05-09T00:35:20.154Z,3.52
2019-05-09T00:40:27.745Z,3.65
2019-05-09T00:45:35.380Z,3.67
2019-05-09T00:50:43.712Z,3.98
2019-05-09T00:55:50.184Z,4.06
2019-05-09T01:00:57.818Z,4.06
2019-05-09T01:06:05.450Z,3.99
2019-05-09T01:11:15.456Z,4.18
2019-05-09T01:16:20.243Z,4.25
2019-05-09T01:21:27.848Z,4.48
2019-05-09T01:26:35.541Z,4.14
2019-05-09T01:31:43.709Z,4.18
2019-05-09T01:36:50.307Z,4.06
2019-05-09T01:41:57.911Z,4.07
2019-05-09T01:47:05.562Z,3.80
2019-05-09T01:52:13.798Z,3.65
2019-05-09T01:57:20.348Z,3.61
2019-05-09T02:02:27.976Z,3.62
2019-05-09T02:07:35.620Z,3.87
2019-05-09T02:12:43.217Z,4.00
2019-05-09T02:18:00.672Z,3.85
2019-05-09T02:22:58.001Z,3.61
2019-05-09T02:28:05.637Z,3.76
2019-05-09T02:33:14.613Z,3.55
2019-05-09T02:38:20.439Z,3.59
2019-05-09T02:43:29.000Z,3.38
2019-05-09T02:48:38.377Z,3.91
2019-05-09T02:53:42.339Z,3.40
2019-05-09T02:58:50.031Z,3.40
2019-05-09T03:03:58.905Z,3.42
2019-05-09T03:09:04.831Z,3.36
2019-05-09T03:14:12.414Z,3.59
2019-05-09T03:19:20.050Z,3.48
2019-05-09T03:24:28.873Z,3.45
2019-05-09T03:29:34.833Z,3.63
2019-05-09T03:34:42.421Z,3.84
2019-05-09T03:39:50.061Z,3.86
2019-05-09T03:44:58.185Z,4.06
2019-05-09T03:50:04.854Z,3.77
2019-05-09T03:55:12.443Z,3.81
2019-05-09T04:00:20.058Z,3.91
2019-05-09T04:05:27.660Z,3.80
2019-05-09T04:10:35.284Z,4.03
2019-05-09T04:15:42.870Z,3.90
2019-05-09T04:20:50.511Z,3.61
2019-05-09T04:25:58.372Z,3.61
2019-05-09T04:31:07.392Z,3.81
2019-05-09T04:36:12.894Z,3.51
2019-05-09T04:41:23.813Z,3.32
2019-05-09T04:46:27.822Z,3.57
2019-05-09T04:51:39.099Z,3.64
2019-05-09T04:56:42.513Z,3.50
2019-05-09T05:01:50.145Z,3.26
2019-05-09T05:06:58.564Z,3.06
2019-05-09T05:12:04.949Z,3.29
2019-05-09T05:17:12.542Z,3.36
2019-05-09T05:22:20.216Z,3.09
2019-05-09T05:27:27.963Z,3.21
2019-05-09T05:32:35.655Z,2.97
2019-05-09T05:37:43.274Z,3.30
2019-05-09T05:42:50.943Z,2.93
2019-05-09T05:47:58.534Z,2.66
2019-05-09T05:53:07.991Z,2.70
2019-05-09T05:58:13.337Z,2.67
2019-05-09T06:03:21.067Z,2.69
2019-05-09T06:08:28.684Z,2.86
2019-05-09T06:13:37.970Z,3.02
2019-05-09T06:18:43.565Z,2.75
2019-05-09T06:23:51.209Z,2.67
2019-05-09T06:28:58.792Z,2.64
2019-05-09T06:34:08.329Z,2.61
2019-05-09T06:39:13.568Z,2.76
2019-05-09T06:44:21.158Z,2.75
2019-05-09T06:49:31.775Z,2.81
2019-05-09T06:54:35.929Z,2.78
2019-05-09T06:59:43.499Z,2.91
2019-05-09T07:04:51.122Z,2.72
2019-05-09T07:09:58.807Z,2.54
2019-05-09T07:15:08.598Z,2.71
2019-05-09T07:20:13.501Z,2.56
2019-05-09T07:25:21.171Z,2.37
2019-05-09T07:30:29.169Z,2.32
2019-05-09T07:35:38.096Z,2.45
2019-05-09T07:40:43.133Z,2.30
2019-05-09T07:45:53.158Z,2.40
2019-05-09T07:50:59.707Z,2.41
2019-05-09T07:56:05.173Z,2.28
2019-05-09T08:01:12.777Z,2.32
2019-05-09T08:06:20.420Z,2.45
2019-05-09T08:11:29.467Z,2.38
2019-05-09T08:16:35.234Z,2.20
2019-05-09T08:21:42.817Z,2.22
2019-05-09T08:26:50.498Z,2.21
2019-05-09T08:31:58.475Z,2.11
2019-05-09T08:37:05.243Z,2.08
2019-05-09T08:42:12.815Z,2.15
2019-05-09T08:47:20.453Z,2.05
2019-05-09T08:52:28.780Z,2.11
2019-05-09T08:57:37.399Z,2.04
2019-05-09T09:02:42.317Z,1.99
2019-05-09T09:07:49.961Z,2.22
2019-05-09T09:12:58.169Z,2.46
2019-05-09T09:18:04.721Z,2.26
2019-05-09T09:23:12.320Z,2.75
2019-05-09T09:28:19.936Z,2.20
2019-05-09T09:33:28.088Z,2.54
2019-05-09T09:38:34.785Z,2.17
2019-05-09T09:43:42.398Z,2.70
2019-05-09T09:48:50.141Z,2.40
2019-05-09T09:53:58.471Z,2.35
2019-05-09T09:59:04.896Z,2.36
2019-05-09T10:04:19.339Z,2.74
2019-05-09T10:09:19.517Z,1.99
2019-05-09T10:14:28.407Z,2.47
2019-05-09T10:19:34.307Z,2.54
2019-05-09T10:24:41.911Z,2.31
2019-05-09T10:29:49.616Z,2.21
2019-05-09T10:34:58.114Z,2.34
2019-05-09T10:40:04.405Z,2.13
2019-05-09T10:45:11.987Z,2.21
2019-05-09T10:50:19.663Z,2.48
2019-05-09T10:55:28.365Z,4.09
2019-05-09T11:00:34.517Z,3.00
2019-05-09T11:05:42.096Z,2.34
2019-05-09T11:10:49.774Z,7.73
2019-05-09T11:15:58.284Z,3.00
2019-05-09T11:21:04.541Z,2.45
2019-05-09T11:26:12.142Z,2.67
2019-05-09T11:31:20.025Z,2.39
2019-05-09T11:36:26.898Z,2.93
2019-05-09T11:41:34.531Z,2.98
2019-05-09T11:46:42.153Z,2.58
2019-05-09T11:51:49.852Z,2.33
2019-05-09T11:56:57.707Z,2.55
2019-05-09T12:02:05.125Z,2.31
2019-05-09T12:07:12.703Z,2.48
2019-05-09T12:12:20.328Z,2.28
2019-05-09T12:17:40.784Z,1.79
2019-05-09T12:22:35.117Z,2.48
2019-05-09T12:27:42.764Z,2.08
2019-05-09T12:32:50.523Z,1.38
2019-05-09T12:37:58.123Z,1.60
2019-05-09T12:43:05.796Z,1.99
2019-05-09T12:48:15.475Z,1.84
2019-05-09T12:53:20.537Z,1.54
2019-05-09T12:58:28.122Z,1.67
2019-05-09T13:03:38.027Z,1.70
2019-05-09T13:08:42.893Z,1.75
2019-05-09T13:13:50.533Z,1.92
2019-05-09T13:19:01.881Z,1.77
2019-05-09T13:24:08.031Z,1.83
2019-05-09T13:29:12.371Z,2.01
2019-05-09T13:34:20.000Z,1.72
2019-05-09T13:39:28.038Z,1.57
2019-05-09T13:44:34.797Z,1.53
2019-05-09T13:49:42.436Z,1.78
2019-05-09T13:54:50.123Z,1.79
2019-05-09T13:59:58.527Z,1.85
2019-05-09T14:05:04.973Z,1.78
2019-05-09T14:10:12.592Z,1.88
2019-05-09T14:15:20.241Z,2.15
2019-05-09T14:20:27.832Z,1.97
2019-05-09T14:25:37.890Z,2.31
2019-05-09T14:30:42.653Z,2.83
2019-05-09T14:35:50.304Z,2.98
2019-05-09T14:40:59.500Z,2.55
2019-05-09T14:46:05.076Z,3.28
2019-05-09T14:51:12.661Z,3.20
2019-05-09T14:56:20.397Z,3.27
2019-05-09T15:01:28.921Z,3.94
2019-05-09T15:06:35.280Z,4.48
2019-05-09T15:11:42.890Z,4.34
2019-05-09T15:16:50.607Z,4.61
2019-05-09T15:22:00.709Z,4.68
2019-05-09T15:27:05.379Z,4.37
2019-05-09T15:32:12.998Z,4.52
2019-05-09T15:37:20.649Z,4.39
2019-05-09T15:42:30.436Z,4.05
2019-05-09T15:47:37.655Z,4.47
2019-05-09T15:52:42.549Z,4.03
2019-05-09T15:57:50.358Z,3.70
2019-05-09T16:02:58.996Z,3.47
2019-05-09T16:08:08.425Z,3.33
2019-05-09T16:13:12.350Z,3.43
2019-05-09T16:18:20.045Z,3.58
2019-05-09T16:23:29.027Z,3.37
2019-05-09T16:28:34.827Z,3.31
2019-05-09T16:33:42.418Z,3.19
2019-05-09T16:38:50.101Z,3.54
2019-05-09T16:43:58.347Z,3.28
2019-05-09T16:49:05.144Z,3.26
2019-05-09T16:54:12.053Z,3.53
2019-05-09T16:59:19.839Z,3.03
2019-05-09T17:04:27.854Z,2.89
2019-05-09T17:09:34.661Z,2.88
2019-05-09T17:14:42.274Z,2.84
2019-05-09T17:19:49.932Z,2.59
2019-05-09T17:24:57.523Z,2.66
2019-05-09T17:30:05.218Z,2.90
2019-05-09T17:35:12.827Z,2.85
2019-05-09T17:40:20.457Z,2.55
2019-05-09T17:45:28.061Z,2.39
2019-05-09T17:50:38.100Z,2.89
2019-05-09T17:55:42.852Z,2.69
2019-05-09T18:00:50.514Z,2.84
2019-05-09T18:05:58.105Z,2.76
2019-05-09T18:11:05.751Z,2.73
2019-05-09T18:16:13.407Z,2.92
2019-05-09T18:21:21.089Z,2.74
2019-05-09T18:26:28.675Z,2.97
2019-05-09T18:31:37.429Z,2.84
2019-05-09T18:36:43.421Z,2.98
2019-05-09T18:41:51.094Z,2.81
2019-05-09T18:46:58.684Z,2.96
2019-05-09T18:52:06.429Z,2.88
2019-05-09T18:57:14.038Z,2.99
2019-05-09T19:02:21.765Z,2.86
2019-05-09T19:07:29.393Z,2.41
2019-05-09T19:12:37.082Z,2.66
2019-05-09T19:17:44.676Z,2.59
2019-05-09T19:22:52.333Z,3.40
2019-05-09T19:27:59.951Z,3.83
2019-05-09T19:33:07.598Z,4.15
2019-05-09T19:38:15.222Z,3.72
2019-05-09T19:43:22.951Z,3.37
2019-05-09T19:48:30.506Z,3.19
2019-05-09T19:53:38.174Z,3.03
2019-05-09T19:58:45.798Z,3.59
2019-05-09T20:03:53.438Z,3.27
2019-05-09T20:09:01.160Z,3.13
2019-05-09T20:14:08.854Z,2.73
2019-05-09T20:19:16.474Z,2.55
2019-05-09T20:24:24.176Z,2.43
2019-05-09T20:29:31.789Z,2.77
2019-05-09T20:34:39.477Z,2.92
2019-05-09T20:39:47.055Z,3.32
2019-05-09T20:44:54.820Z,3.48
2019-05-09T20:50:02.458Z,3.66
2019-05-09T20:55:10.167Z,4.08
2019-05-09T21:00:17.781Z,4.33
2019-05-09T21:05:25.422Z,4.29
2019-05-09T21:10:32.999Z,4.78
2019-05-09T21:15:40.690Z,5.12
2019-05-09T21:20:48.299Z,5.66
2019-05-09T21:25:55.953Z,5.73
2019-05-09T21:31:03.550Z,6.04
2019-05-09T21:36:11.213Z,6.61
2019-05-09T21:41:18.804Z,8.14
2019-05-09T21:46:26.458Z,8.65
2019-05-09T21:51:34.073Z,7.53
2019-05-09T21:56:41.705Z,7.53
2019-05-09T22:01:49.298Z,8.00
2019-05-09T22:06:56.960Z,7.69
2019-05-09T22:12:04.571Z,8.00
2019-05-09T22:17:12.304Z,7.76
2019-05-09T22:22:19.917Z,9.11
2019-05-09T22:27:27.571Z,9.41
2019-05-09T22:32:35.159Z,7.95
2019-05-09T22:37:42.758Z,8.31
2019-05-09T22:42:50.359Z,8.53
2019-05-09T22:47:58.035Z,10.08
2019-05-09T22:53:05.647Z,9.49
2019-05-09T22:58:13.293Z,8.55
2019-05-09T23:03:20.909Z,7.56
2019-05-09T23:08:28.579Z,8.53
2019-05-09T23:13:36.162Z,7.65
2019-05-09T23:18:43.799Z,8.01
2019-05-09T23:23:51.435Z,8.28
2019-05-09T23:28:59.077Z,8.23
2019-05-09T23:34:06.689Z,8.18
2019-05-09T23:39:14.307Z,8.22
2019-05-09T23:44:21.917Z,8.28
2019-05-09T23:49:29.586Z,8.34
2019-05-09T23:54:45.839Z,9.12
2019-05-09T23:59:44.405Z,7.65
